createdAt,value
2022-08-28T00:02:02.241Z,89.35
2022-08-28T00:04:29.790Z,89.10
2022-08-28T00:06:57.141Z,89.17
2022-08-28T00:09:24.895Z,88.60
2022-08-28T00:11:51.904Z,88.99
2022-08-28T00:14:21.023Z,88.99
2022-08-28T00:16:50.060Z,88.36
2022-08-28T00:19:19.342Z,88.77
2022-08-28T00:21:47.618Z,88.21
2022-08-28T00:24:15.046Z,88.30
2022-08-28T00:27:00.792Z,88.85
2022-08-28T00:29:29.050Z,88.40
2022-08-28T00:31:56.638Z,88.71
2022-08-28T00:34:32.042Z,89.34
2022-08-28T00:37:00.928Z,89.39
2022-08-28T00:39:28.140Z,89.27
2022-08-28T00:41:58.031Z,89.63
2022-08-28T00:44:28.832Z,89.46
2022-08-28T00:46:59.190Z,89.58
2022-08-28T00:49:37.466Z,89.16
2022-08-28T00:52:12.515Z,89.28
2022-08-28T00:54:59.933Z,89.31
2022-08-28T00:57:41.065Z,89.43
2022-08-28T01:00:37.034Z,88.86
2022-08-28T01:03:06.279Z,88.93
2022-08-28T01:05:36.092Z,88.77
2022-08-28T01:08:04.571Z,89.29
2022-08-28T01:10:34.744Z,88.74
2022-08-28T01:13:02.744Z,88.66
2022-08-28T01:15:37.040Z,88.63
2022-08-28T01:18:10.817Z,88.74
2022-08-28T01:21:11.639Z,88.53
2022-08-28T01:24:22.687Z,88.47
2022-08-28T01:26:49.975Z,89.15
2022-08-28T01:29:17.452Z,88.79
2022-08-28T01:31:44.629Z,89.25
2022-08-28T01:34:13.239Z,89.06
2022-08-28T01:36:42.235Z,88.92
2022-08-28T01:39:19.936Z,88.90
2022-08-28T01:41:51.996Z,90.41
2022-08-28T01:44:24.736Z,90.80
2022-08-28T01:46:58.767Z,91.02
2022-08-28T01:49:29.289Z,90.70
2022-08-28T01:51:58.001Z,90.76
2022-08-28T01:54:26.944Z,90.39
2022-08-28T01:56:55.103Z,90.49
2022-08-28T01:59:22.652Z,90.83
2022-08-28T02:01:49.840Z,90.99
2022-08-28T02:04:16.992Z,91.58
2022-08-28T02:06:44.057Z,91.43
2022-08-28T02:09:14.744Z,91.14
2022-08-28T02:11:46.786Z,91.61
2022-08-28T02:14:14.786Z,91.16
2022-08-28T02:16:41.810Z,92.04
2022-08-28T02:19:08.798Z,92.45
2022-08-28T02:21:35.766Z,92.30
2022-08-28T02:24:03.493Z,92.52
2022-08-28T02:26:31.814Z,91.89
2022-08-28T02:28:59.730Z,92.63
2022-08-28T02:31:27.717Z,92.47
2022-08-28T02:33:55.805Z,92.47
2022-08-28T02:36:23.624Z,91.96
2022-08-28T02:38:57.385Z,92.17
2022-08-28T02:41:25.460Z,92.00
2022-08-28T02:43:53.224Z,92.37
2022-08-28T02:46:20.422Z,93.16
2022-08-28T02:48:47.468Z,92.42
2022-08-28T02:51:15.148Z,91.79
2022-08-28T02:53:43.196Z,91.82
2022-08-28T02:56:10.862Z,92.34
2022-08-28T02:58:39.741Z,91.93
2022-08-28T03:01:11.191Z,93.13
2022-08-28T03:03:40.939Z,92.45
2022-08-28T03:06:14.313Z,93.20
2022-08-28T03:08:43.440Z,92.72
2022-08-28T03:11:11.888Z,93.43
2022-08-28T03:13:39.056Z,93.39
2022-08-28T03:16:06.557Z,93.29
2022-08-28T03:18:33.713Z,93.25
2022-08-28T03:21:01.145Z,93.19
2022-08-28T03:23:28.306Z,93.74
2022-08-28T03:26:11.305Z,93.01
2022-08-28T03:28:48.389Z,93.19
2022-08-28T03:31:23.910Z,93.11
2022-08-28T03:33:52.423Z,93.58
2022-08-28T03:36:26.139Z,93.54
2022-08-28T03:38:59.727Z,93.68
2022-08-28T03:41:30.762Z,93.89
2022-08-28T03:44:00.892Z,93.98
2022-08-28T03:46:34.788Z,93.45
2022-08-28T03:49:04.818Z,93.80
2022-08-28T03:51:34.085Z,93.51
2022-08-28T03:54:04.092Z,93.93
2022-08-28T03:56:32.223Z,93.23
2022-08-28T03:59:02.372Z,93.27
2022-08-28T04:01:29.962Z,93.55
2022-08-28T04:03:57.624Z,93.73
2022-08-28T04:06:25.089Z,93.79
2022-08-28T04:08:52.077Z,93.49
2022-08-28T04:11:19.064Z,93.43
2022-08-28T04:13:46.222Z,93.71
2022-08-28T04:16:19.057Z,92.91
2022-08-28T04:18:49.731Z,93.33
2022-08-28T04:21:24.376Z,93.14
2022-08-28T04:23:51.636Z,93.20
2022-08-28T04:26:27.799Z,93.17
2022-08-28T04:28:56.093Z,93.08
2022-08-28T04:31:31.935Z,93.36
2022-08-28T04:34:02.632Z,93.25
2022-08-28T04:36:29.987Z,93.05
2022-08-28T04:38:58.743Z,93.64
2022-08-28T04:41:27.592Z,93.36
2022-08-28T04:43:57.420Z,93.57
2022-08-28T04:46:25.735Z,93.66
2022-08-28T04:48:53.112Z,93.80
2022-08-28T04:51:20.501Z,93.73
2022-08-28T04:53:47.770Z,92.98
2022-08-28T04:56:15.868Z,93.38
2022-08-28T04:58:44.492Z,92.63
2022-08-28T05:01:20.139Z,92.81
2022-08-28T05:03:52.468Z,92.53
2022-08-28T05:06:19.456Z,92.17
2022-08-28T05:08:46.469Z,91.94
2022-08-28T05:11:32.930Z,92.64
2022-08-28T05:14:08.944Z,92.80
2022-08-28T05:16:49.324Z,91.88
2022-08-28T05:19:18.582Z,92.22
2022-08-28T05:21:46.669Z,92.35
2022-08-28T05:24:13.913Z,91.76
2022-08-28T05:26:41.974Z,91.95
2022-08-28T05:29:11.176Z,91.35
2022-08-28T05:31:40.393Z,91.05
2022-08-28T05:34:08.171Z,90.98
2022-08-28T05:36:38.703Z,91.44
2022-08-28T05:39:11.537Z,90.87
2022-08-28T05:41:43.730Z,90.30
2022-08-28T05:44:14.935Z,90.38
2022-08-28T05:46:47.670Z,90.27
2022-08-28T05:49:17.678Z,89.88
2022-08-28T05:51:45.968Z,90.64
2022-08-28T05:54:14.783Z,90.33
2022-08-28T05:56:45.300Z,90.49
2022-08-28T05:59:13.753Z,90.62
2022-08-28T06:01:47.482Z,90.11
2022-08-28T06:04:25.161Z,89.53
2022-08-28T06:06:52.715Z,89.29
2022-08-28T06:09:29.774Z,89.30
2022-08-28T06:12:00.917Z,89.11
2022-08-28T06:14:30.214Z,89.45
2022-08-28T06:16:58.760Z,89.08
2022-08-28T06:19:29.706Z,89.17
2022-08-28T06:22:01.753Z,89.63
2022-08-28T06:24:34.800Z,89.75
2022-08-28T06:27:01.831Z,89.37
2022-08-28T06:29:29.746Z,88.05
2022-08-28T06:32:02.073Z,87.97
2022-08-28T06:34:29.470Z,88.60
2022-08-28T06:36:56.639Z,88.72
2022-08-28T06:39:23.868Z,88.02
2022-08-28T06:41:50.957Z,87.86
2022-08-28T06:44:21.621Z,88.12
2022-08-28T06:46:53.667Z,88.55
2022-08-28T06:49:21.484Z,87.66
2022-08-28T06:51:49.153Z,87.88
2022-08-28T06:54:22.226Z,88.54
2022-08-28T06:56:52.344Z,88.51
2022-08-28T06:59:19.627Z,88.85
2022-08-28T07:01:46.846Z,87.58
2022-08-28T07:04:14.577Z,87.08
2022-08-28T07:06:54.202Z,86.19
2022-08-28T07:09:21.638Z,87.37
2022-08-28T07:11:48.646Z,87.70
2022-08-28T07:14:15.797Z,86.96
2022-08-28T07:16:44.362Z,87.17
2022-08-28T07:19:13.257Z,85.83
2022-08-28T07:21:45.648Z,86.11
2022-08-28T07:24:16.023Z,85.61
2022-08-28T07:26:45.801Z,85.78
2022-08-28T07:29:13.148Z,86.07
2022-08-28T07:31:46.375Z,86.47
2022-08-28T07:34:14.919Z,86.82
2022-08-28T07:36:42.869Z,86.29
2022-08-28T07:39:11.768Z,86.07
2022-08-28T07:41:42.569Z,85.67
2022-08-28T07:44:33.061Z,87.12
2022-08-28T07:47:05.711Z,87.97
2022-08-28T07:49:34.973Z,86.66
2022-08-28T07:52:03.763Z,86.07
2022-08-28T07:54:30.885Z,86.45
2022-08-28T07:56:57.946Z,85.85
2022-08-28T07:59:24.982Z,86.96
2022-08-28T08:01:53.419Z,85.91
2022-08-28T08:04:23.361Z,86.54
2022-08-28T08:06:58.050Z,86.00
2022-08-28T08:09:26.282Z,84.35
2022-08-28T08:11:55.303Z,84.72
2022-08-28T08:14:23.052Z,84.96
2022-08-28T08:16:50.303Z,87.14
2022-08-28T08:19:18.829Z,87.52
2022-08-28T08:21:54.539Z,88.37
2022-08-28T08:24:26.629Z,85.95
2022-08-28T08:27:00.798Z,84.85
2022-08-28T08:29:33.338Z,84.29
2022-08-28T08:32:06.906Z,84.27
2022-08-28T08:34:42.896Z,84.64
2022-08-28T08:37:11.605Z,83.84
2022-08-28T08:39:39.656Z,86.61
2022-08-28T08:42:31.579Z,86.56
2022-08-28T08:45:10.470Z,87.10
2022-08-28T08:47:51.329Z,87.22
2022-08-28T08:50:21.617Z,87.28
2022-08-28T08:53:43.110Z,85.38
2022-08-28T08:56:17.480Z,86.49
2022-08-28T08:58:52.897Z,84.92
2022-08-28T09:02:06.996Z,85.50
2022-08-28T09:04:53.153Z,85.64
2022-08-28T09:07:56.769Z,85.84
2022-08-28T09:10:45.955Z,84.07
2022-08-28T09:13:44.468Z,85.21
2022-08-28T09:16:31.507Z,84.78
2022-08-28T09:19:01.053Z,84.79
2022-08-28T09:21:34.728Z,84.02
2022-08-28T09:24:11.188Z,84.08
2022-08-28T09:26:40.299Z,83.71
2022-08-28T09:29:18.231Z,83.44
2022-08-28T09:31:45.341Z,84.67
2022-08-28T09:34:38.576Z,84.76
2022-08-28T09:37:08.477Z,84.19
2022-08-28T09:39:36.027Z,83.58
2022-08-28T09:42:42.769Z,84.33
2022-08-28T09:45:22.426Z,85.65
2022-08-28T09:47:57.589Z,85.58
2022-08-28T09:50:42.363Z,84.78
2022-08-28T09:53:17.575Z,84.58
2022-08-28T09:56:14.115Z,84.52
2022-08-28T09:59:02.340Z,84.75
2022-08-28T10:01:41.196Z,85.29
2022-08-28T10:04:44.566Z,83.63
2022-08-28T10:07:56.289Z,84.05
2022-08-28T10:10:50.667Z,82.35
2022-08-28T10:13:42.346Z,83.61
2022-08-28T10:16:28.879Z,82.11
2022-08-28T10:19:14.940Z,82.35
2022-08-28T10:21:59.594Z,82.86
2022-08-28T10:24:48.250Z,81.18
2022-08-28T10:27:50.485Z,80.79
2022-08-28T10:30:23.916Z,81.09
2022-08-28T10:33:30.587Z,81.03
2022-08-28T10:36:34.054Z,82.11
2022-08-28T10:39:55.398Z,83.42
2022-08-28T10:42:35.821Z,82.87
2022-08-28T10:45:22.182Z,82.48
2022-08-28T10:48:07.285Z,84.49
2022-08-28T10:50:52.140Z,83.04
2022-08-28T10:53:31.981Z,82.34
2022-08-28T10:56:10.063Z,80.52
2022-08-28T10:58:40.843Z,82.80
2022-08-28T11:01:14.661Z,84.26
2022-08-28T11:03:50.664Z,84.29
2022-08-28T11:06:56.474Z,83.68
2022-08-28T11:09:37.786Z,82.05
2022-08-28T11:12:42.028Z,82.87
2022-08-28T11:15:36.474Z,84.70
2022-08-28T11:18:16.396Z,83.38
2022-08-28T11:21:14.151Z,82.26
2022-08-28T11:24:06.045Z,81.54
2022-08-28T11:26:58.846Z,82.23
2022-08-28T11:30:08.820Z,83.31
2022-08-28T11:32:57.166Z,82.37
2022-08-28T11:35:30.039Z,79.96
2022-08-28T11:37:58.616Z,80.75
2022-08-28T11:40:28.574Z,79.32
2022-08-28T11:43:16.936Z,80.93
2022-08-28T11:45:46.773Z,79.76
2022-08-28T11:48:23.057Z,78.35
2022-08-28T11:51:07.230Z,78.74
2022-08-28T11:54:23.488Z,78.97
2022-08-28T11:57:28.209Z,80.58
2022-08-28T12:00:01.140Z,80.03
2022-08-28T12:02:40.035Z,79.39
2022-08-28T12:05:15.085Z,79.32
2022-08-28T12:07:46.682Z,75.47
2022-08-28T12:10:22.872Z,76.40
2022-08-28T12:13:07.449Z,75.29
2022-08-28T12:15:34.344Z,73.06
2022-08-28T12:18:15.923Z,72.44
2022-08-28T12:20:59.948Z,75.56
2022-08-28T12:23:31.644Z,73.99
2022-08-28T12:26:16.816Z,72.59
2022-08-28T12:29:27.324Z,76.79
2022-08-28T12:32:41.125Z,77.94
2022-08-28T12:35:23.585Z,76.87
2022-08-28T12:37:53.745Z,76.76
2022-08-28T12:40:41.237Z,76.06
2022-08-28T12:43:15.351Z,77.55
2022-08-28T12:45:59.520Z,78.38
2022-08-28T12:48:31.573Z,79.51
2022-08-28T12:51:08.422Z,81.01
2022-08-28T12:53:49.020Z,77.67
2022-08-28T12:56:21.693Z,77.29
2022-08-28T12:58:50.770Z,73.64
2022-08-28T13:01:32.999Z,73.58
2022-08-28T13:04:23.109Z,74.77
2022-08-28T13:06:57.355Z,74.79
2022-08-28T13:09:28.271Z,75.22
2022-08-28T13:11:55.610Z,76.32
2022-08-28T13:14:46.293Z,74.82
2022-08-28T13:17:35.436Z,75.94
2022-08-28T13:20:06.986Z,78.59
2022-08-28T13:22:42.010Z,75.01
2022-08-28T13:25:31.780Z,77.43
2022-08-28T13:28:13.573Z,76.22
2022-08-28T13:30:40.760Z,75.36
2022-08-28T13:33:24.613Z,75.67
2022-08-28T13:35:53.904Z,78.01
2022-08-28T13:38:25.116Z,77.45
2022-08-28T13:40:59.444Z,75.21
2022-08-28T13:43:45.184Z,74.60
2022-08-28T13:46:12.485Z,74.42
2022-08-28T13:48:39.956Z,74.97
2022-08-28T13:51:14.252Z,74.08
2022-08-28T13:53:51.117Z,75.81
2022-08-28T13:56:19.465Z,76.08
2022-08-28T13:58:57.719Z,76.39
2022-08-28T14:01:48.553Z,72.87
2022-08-28T14:04:15.651Z,70.29
2022-08-28T14:06:44.229Z,68.34
2022-08-28T14:09:15.321Z,70.62
2022-08-28T14:11:47.178Z,71.99
2022-08-28T14:14:14.307Z,71.38
2022-08-28T14:16:42.340Z,70.83
2022-08-28T14:19:09.577Z,68.16
2022-08-28T14:21:40.471Z,66.97
2022-08-28T14:24:08.137Z,66.37
2022-08-28T14:26:36.390Z,67.65
2022-08-28T14:29:10.791Z,67.15
2022-08-28T14:31:40.892Z,65.56
2022-08-28T14:34:15.874Z,63.40
2022-08-28T14:36:43.473Z,62.98
2022-08-28T14:39:13.529Z,64.34
2022-08-28T14:41:46.459Z,63.89
2022-08-28T14:44:13.944Z,66.24
2022-08-28T14:46:46.288Z,62.37
2022-08-28T14:49:18.151Z,62.18
2022-08-28T14:51:46.826Z,62.31
2022-08-28T14:54:17.909Z,60.01
2022-08-28T14:56:46.671Z,58.89
2022-08-28T14:59:24.246Z,59.29
2022-08-28T15:01:53.593Z,57.79
2022-08-28T15:04:24.065Z,56.74
2022-08-28T15:06:58.349Z,57.50
2022-08-28T15:09:26.843Z,59.41
2022-08-28T15:11:54.380Z,60.06
2022-08-28T15:14:21.877Z,60.15
2022-08-28T15:16:49.359Z,58.17
2022-08-28T15:19:18.058Z,57.83
2022-08-28T15:21:53.781Z,55.85
2022-08-28T15:24:27.945Z,57.51
2022-08-28T15:26:55.197Z,55.85
2022-08-28T15:29:22.353Z,60.41
2022-08-28T15:31:50.887Z,61.07
2022-08-28T15:34:26.189Z,62.00
2022-08-28T15:36:56.229Z,60.89
2022-08-28T15:39:47.719Z,61.86
2022-08-28T15:42:17.562Z,63.04
2022-08-28T15:44:47.557Z,66.42
2022-08-28T15:47:23.727Z,63.55
2022-08-28T15:49:56.215Z,62.60
2022-08-28T15:52:25.302Z,62.39
2022-08-28T15:54:53.539Z,62.27
2022-08-28T15:57:21.221Z,63.02
2022-08-28T15:59:50.831Z,63.28
2022-08-28T16:02:24.607Z,64.88
2022-08-28T16:04:55.482Z,64.31
2022-08-28T16:07:23.436Z,62.84
2022-08-28T16:09:51.708Z,62.88
2022-08-28T16:12:19.237Z,64.79
2022-08-28T16:14:57.981Z,64.46
2022-08-28T16:17:27.692Z,63.37
2022-08-28T16:19:54.801Z,63.33
2022-08-28T16:22:21.814Z,62.37
2022-08-28T16:24:49.079Z,63.87
2022-08-28T16:27:16.657Z,63.66
2022-08-28T16:29:45.364Z,62.83
2022-08-28T16:32:12.987Z,60.62
2022-08-28T16:34:40.157Z,61.73
2022-08-28T16:37:07.926Z,61.37
2022-08-28T16:39:36.109Z,62.23
2022-08-28T16:42:03.805Z,60.37
2022-08-28T16:44:31.027Z,60.31
2022-08-28T16:46:58.199Z,61.70
2022-08-28T16:49:25.385Z,62.01
2022-08-28T16:51:52.755Z,61.92
2022-08-28T16:54:21.489Z,63.60
2022-08-28T16:56:48.767Z,63.82
2022-08-28T16:59:23.279Z,63.75
2022-08-28T17:01:53.012Z,65.04
2022-08-28T17:04:21.362Z,66.04
2022-08-28T17:06:48.375Z,67.06
2022-08-28T17:09:15.389Z,65.90
2022-08-28T17:11:42.393Z,65.62
2022-08-28T17:14:11.878Z,65.23
2022-08-28T17:16:39.383Z,66.32
2022-08-28T17:19:06.529Z,67.11
2022-08-28T17:21:52.111Z,69.86
2022-08-28T17:24:19.569Z,68.77
2022-08-28T17:26:47.393Z,69.10
2022-08-28T17:29:14.472Z,68.58
2022-08-28T17:31:41.544Z,68.48
2022-08-28T17:34:08.798Z,66.63
2022-08-28T17:36:39.425Z,67.12
2022-08-28T17:39:13.118Z,66.87
2022-08-28T17:41:41.498Z,68.02
2022-08-28T17:44:09.265Z,68.61
2022-08-28T17:46:37.950Z,68.21
2022-08-28T17:49:07.301Z,68.36
2022-08-28T17:51:43.304Z,66.68
2022-08-28T17:54:18.809Z,66.93
2022-08-28T17:56:46.354Z,67.58
2022-08-28T17:59:15.172Z,68.70
2022-08-28T18:01:45.006Z,68.14
2022-08-28T18:04:16.217Z,68.32
2022-08-28T18:06:48.559Z,69.18
2022-08-28T18:09:15.658Z,69.33
2022-08-28T18:11:43.312Z,69.29
2022-08-28T18:14:10.451Z,69.95
2022-08-28T18:16:38.877Z,70.50
2022-08-28T18:19:10.038Z,70.51
2022-08-28T18:21:38.922Z,70.95
2022-08-28T18:24:07.057Z,71.31
2022-08-28T18:26:34.541Z,71.64
2022-08-28T18:29:01.641Z,72.25
2022-08-28T18:31:28.758Z,72.43
2022-08-28T18:33:55.930Z,72.42
2022-08-28T18:36:23.170Z,72.54
2022-08-28T18:38:51.336Z,72.51
2022-08-28T18:41:20.328Z,72.27
2022-08-28T18:43:48.036Z,73.57
2022-08-28T18:46:15.755Z,72.89
2022-08-28T18:48:43.020Z,73.81
2022-08-28T18:51:12.463Z,72.00
2022-08-28T18:53:42.350Z,71.97
2022-08-28T18:56:12.457Z,72.25
2022-08-28T18:58:41.501Z,70.53
2022-08-28T19:01:09.890Z,69.46
2022-08-28T19:03:37.344Z,70.01
2022-08-28T19:06:06.206Z,68.76
2022-08-28T19:08:35.242Z,69.91
2022-08-28T19:11:11.180Z,69.32
2022-08-28T19:13:39.615Z,68.91
2022-08-28T19:16:07.530Z,68.94
2022-08-28T19:18:34.966Z,68.86
2022-08-28T19:21:16.760Z,68.85
2022-08-28T19:23:51.797Z,68.57
2022-08-28T19:26:27.487Z,68.67
2022-08-28T19:28:55.359Z,68.61
2022-08-28T19:31:23.383Z,68.55
2022-08-28T19:33:51.371Z,70.07
2022-08-28T19:36:19.184Z,70.36
2022-08-28T19:38:46.181Z,71.00
2022-08-28T19:41:14.429Z,72.43
2022-08-28T19:43:42.963Z,71.86
2022-08-28T19:46:18.229Z,73.32
2022-08-28T19:48:51.339Z,73.46
2022-08-28T19:51:23.368Z,73.94
2022-08-28T19:53:58.397Z,74.02
2022-08-28T19:56:29.606Z,74.70
2022-08-28T19:58:59.550Z,75.15
2022-08-28T20:01:40.250Z,73.84
2022-08-28T20:04:09.388Z,73.75
2022-08-28T20:06:37.155Z,73.94
2022-08-28T20:09:07.406Z,75.17
2022-08-28T20:11:38.269Z,75.37
2022-08-28T20:14:06.162Z,75.17
2022-08-28T20:16:40.666Z,74.88
2022-08-28T20:19:10.459Z,76.08
2022-08-28T20:21:41.399Z,76.97
2022-08-28T20:24:18.671Z,76.88
2022-08-28T20:26:47.521Z,76.00
2022-08-28T20:29:16.417Z,75.13
2022-08-28T20:31:47.894Z,75.57
2022-08-28T20:34:18.774Z,75.71
2022-08-28T20:36:46.336Z,76.30
2022-08-28T20:39:14.728Z,76.37
2022-08-28T20:41:44.316Z,77.52
2022-08-28T20:44:18.633Z,77.12
2022-08-28T20:46:51.092Z,78.72
2022-08-28T20:49:21.823Z,78.47
2022-08-28T20:52:00.690Z,78.16
2022-08-28T20:54:38.134Z,76.90
2022-08-28T20:57:11.255Z,78.25
2022-08-28T20:59:41.911Z,78.46
2022-08-28T21:02:18.552Z,78.61
2022-08-28T21:04:47.742Z,79.16
2022-08-28T21:07:18.814Z,78.46
2022-08-28T21:10:05.979Z,78.60
2022-08-28T21:12:33.460Z,79.06
2022-08-28T21:15:00.703Z,79.12
2022-08-28T21:17:29.441Z,78.91
2022-08-28T21:20:09.114Z,78.71
2022-08-28T21:22:40.106Z,78.61
2022-08-28T21:25:10.605Z,79.14
2022-08-28T21:27:38.003Z,79.47
2022-08-28T21:30:08.301Z,78.84
2022-08-28T21:32:36.368Z,79.34
2022-08-28T21:35:07.280Z,80.79
2022-08-28T21:37:34.755Z,78.77
2022-08-28T21:40:04.417Z,78.33
2022-08-28T21:42:31.437Z,80.01
2022-08-28T21:44:58.426Z,79.13
2022-08-28T21:47:26.234Z,79.51
2022-08-28T21:49:56.419Z,80.02
2022-08-28T21:52:29.924Z,81.00
2022-08-28T21:55:00.656Z,78.54
2022-08-28T21:57:29.601Z,77.91
2022-08-28T21:59:58.390Z,78.68
2022-08-28T22:02:25.735Z,77.72
2022-08-28T22:04:53.647Z,77.51
2022-08-28T22:07:21.838Z,77.83
2022-08-28T22:09:49.335Z,78.36
2022-08-28T22:12:16.680Z,78.88
2022-08-28T22:14:43.829Z,77.46
2022-08-28T22:17:11.754Z,78.64
2022-08-28T22:19:39.738Z,77.91
2022-08-28T22:22:27.358Z,78.34
2022-08-28T22:24:54.780Z,78.19
2022-08-28T22:27:22.171Z,77.92
2022-08-28T22:29:49.190Z,78.66
2022-08-28T22:32:16.303Z,78.91
2022-08-28T22:34:46.079Z,78.31
2022-08-28T22:37:13.761Z,78.51
2022-08-28T22:39:42.450Z,79.27
2022-08-28T22:42:10.214Z,78.04
2022-08-28T22:44:38.814Z,79.92
2022-08-28T22:47:07.225Z,80.92
2022-08-28T22:49:34.616Z,81.41
2022-08-28T22:52:09.041Z,81.26
2022-08-28T22:54:36.026Z,81.12
2022-08-28T22:57:05.692Z,80.67
2022-08-28T22:59:33.738Z,79.91
2022-08-28T23:02:01.352Z,80.79
2022-08-28T23:04:28.368Z,80.15
2022-08-28T23:06:55.402Z,79.47
2022-08-28T23:09:22.498Z,79.94
2022-08-28T23:11:49.677Z,81.09
2022-08-28T23:14:17.260Z,80.09
2022-08-28T23:16:44.862Z,80.45
2022-08-28T23:19:13.541Z,81.44
2022-08-28T23:21:44.116Z,80.81
2022-08-28T23:24:15.994Z,80.23
2022-08-28T23:26:44.931Z,81.16
2022-08-28T23:29:13.957Z,82.17
2022-08-28T23:31:41.429Z,82.06
2022-08-28T23:34:08.764Z,81.30
2022-08-28T23:36:36.588Z,82.52
2022-08-28T23:39:04.889Z,82.26
2022-08-28T23:41:33.546Z,81.80
2022-08-28T23:44:03.215Z,81.43
2022-08-28T23:46:33.506Z,80.93
2022-08-28T23:49:00.952Z,81.86
2022-08-28T23:51:28.958Z,82.40
2022-08-28T23:53:55.970Z,81.96
2022-08-28T23:56:24.010Z,82.73
2022-08-28T23:58:55.426Z,82.17
